Time;durP1;ratioP1;P1;durP2;ratioP2;P2;SDS_P1;SDS_P2;PMS_P1;PMS_P2;Temp;Humidity;BMP_temperature;BMP_pressure;BME280_temperature;BME280_humidity;BME280_pressure;Samples;Min_cycle;Max_cycle;Signal;HPM_P1;HPM_P2
2020/12/13 00:02:19;;;;;;;3.35;1.80;;;11.10;73.20;;;;;;2457579;55;20971;-76
2020/12/13 00:04:46;;;;;;;3.50;1.50;;;11.10;73.90;;;;;;2226487;55;21062;-77
2020/12/13 00:07:13;;;;;;;3.22;1.55;;;11.00;73.10;;;;;;2242314;55;21047;-76
2020/12/13 00:09:42;;;;;;;4.25;1.98;;;11.10;73.20;;;;;;2225019;56;21028;-77
2020/12/13 00:12:09;;;;;;;4.97;2.17;;;11.10;73.20;;;;;;2228962;55;20969;-77
2020/12/13 00:14:36;;;;;;;4.25;1.80;;;11.10;73.20;;;;;;2206054;57;20941;-76
2020/12/13 00:17:03;;;;;;;4.25;2.00;;;11.10;73.30;;;;;;2462812;56;21382;-77
2020/12/13 00:19:29;;;;;;;4.12;1.87;;;11.10;73.30;;;;;;2462228;55;21056;-77
2020/12/13 00:21:56;;;;;;;3.37;1.50;;;11.10;73.30;;;;;;2445202;55;21026;-77
2020/12/13 00:24:23;;;;;;;3.80;1.65;;;11.10;73.30;;;;;;2224389;55;20950;-76
2020/12/13 00:26:49;;;;;;;3.75;1.50;;;11.10;73.30;;;;;;2236172;55;21023;-76
2020/12/13 00:29:17;;;;;;;3.65;1.67;;;11.10;73.20;;;;;;2228751;55;21014;-76
2020/12/13 00:31:43;;;;;;;4.15;1.95;;;11.10;73.30;;;;;;2230373;56;21003;-77
2020/12/13 00:34:14;;;;;;;4.10;2.00;;;11.10;73.20;;;;;;2228771;56;20975;-77
2020/12/13 00:36:40;;;;;;;3.90;1.75;;;11.10;73.30;;;;;;2231332;56;21056;-76
2020/12/13 00:39:07;;;;;;;4.18;1.87;;;11.10;73.30;;;;;;2453326;55;20991;-77
2020/12/13 00:41:33;;;;;;;4.25;2.10;;;11.10;73.30;;;;;;2230419;55;21008;-76
2020/12/13 00:44:00;;;;;;;5.57;2.33;;;11.10;73.30;;;;;;2230940;55;21432;-76
2020/12/13 00:46:27;;;;;;;7.82;3.12;;;11.10;73.30;;;;;;2233321;56;21730;-76
2020/12/13 00:48:54;;;;;;;5.78;2.78;;;11.10;73.30;;;;;;2232630;56;20996;-76
2020/12/13 00:51:24;;;;;;;5.82;2.22;;;11.10;73.30;;;;;;2455127;56;21570;-76
2020/12/13 00:53:50;;;;;;;4.45;2.03;;;11.10;73.30;;;;;;2454116;55;21116;-76
2020/12/13 00:56:20;;;;;;;3.08;1.58;;;11.10;73.20;;;;;;2206822;57;21779;-76
2020/12/13 00:58:47;;;;;;;2.70;1.30;;;11.20;73.30;;;;;;2458510;56;20929;-76
2020/12/13 01:01:14;;;;;;;2.37;1.17;;;11.10;73.20;;;;;;2239269;55;20933;-76
2020/12/13 01:03:41;;;;;;;3.12;1.50;;;11.10;73.30;;;;;;2239982;56;20993;-76
2020/12/13 01:06:07;;;;;;;2.78;1.42;;;11.20;73.30;;;;;;2226612;55;21018;-76
2020/12/13 01:08:35;;;;;;;3.10;1.52;;;11.10;73.20;;;;;;2456099;55;21004;-76
2020/12/13 01:11:03;;;;;;;3.83;1.52;;;11.10;73.30;;;;;;2228628;56;21120;-75
2020/12/13 01:13:31;;;;;;;3.25;1.55;;;11.10;73.30;;;;;;2238357;55;21422;-75
2020/12/13 01:15:58;;;;;;;4.18;2.12;;;11.10;73.30;;;;;;2445091;55;20951;-75
2020/12/13 01:18:25;;;;;;;4.45;2.10;;;11.20;73.30;;;;;;2453472;56;20991;-76
2020/12/13 01:20:53;;;;;;;5.07;2.70;;;11.10;73.20;;;;;;2231801;56;21052;-75
2020/12/13 01:23:21;;;;;;;5.12;2.47;;;11.10;73.20;;;;;;2239929;55;21087;-76
2020/12/13 01:25:47;;;;;;;5.40;2.50;;;11.10;73.10;;;;;;2443022;55;20937;-77
2020/12/13 01:28:17;;;;;;;5.15;2.62;;;11.10;73.20;;;;;;2238294;56;21003;-76
2020/12/13 01:30:43;;;;;;;7.30;3.10;;;11.10;73.20;;;;;;2462744;56;20996;-76
2020/12/13 01:33:10;;;;;;;6.40;3.28;;;11.10;73.30;;;;;;2239213;56;21009;-75
2020/12/13 01:35:39;;;;;;;7.45;3.60;;;11.10;73.30;;;;;;2230644;56;21003;-76
2020/12/13 01:38:06;;;;;;;4.43;2.60;;;11.10;73.30;;;;;;2237280;56;21505;-76
2020/12/13 01:40:33;;;;;;;5.57;2.80;;;11.10;73.30;;;;;;2227758;56;21744;-75
2020/12/13 01:42:59;;;;;;;5.95;2.83;;;11.10;73.30;;;;;;2235905;56;21062;-76
2020/12/13 01:45:26;;;;;;;5.00;2.70;;;11.10;73.20;;;;;;2232128;56;21016;-75
2020/12/13 01:47:52;;;;;;;4.85;2.78;;;11.10;73.30;;;;;;2463090;55;20988;-77
2020/12/13 01:53:44;;;;;;;5.85;2.62;;;11.10;73.30;;;;;;2232552;56;20975;-76
2020/12/13 01:56:11;;;;;;;5.47;2.55;;;11.10;73.30;;;;;;2455749;55;20956;-76
2020/12/13 01:58:38;;;;;;;5.60;3.03;;;11.10;73.20;;;;;;2239103;56;21312;-76
2020/12/13 02:01:06;;;;;;;5.43;2.90;;;11.10;73.20;;;;;;2463471;55;20957;-76
2020/12/13 02:03:54;;;;;;;5.43;3.12;;;11.10;73.30;;;;;;2224859;56;21112;-76
2020/12/13 02:06:22;;;;;;;3.95;2.08;;;11.10;73.10;;;;;;2239348;56;21057;-76
2020/12/13 02:08:49;;;;;;;4.45;2.40;;;11.10;73.30;;;;;;2462953;55;20953;-76
2020/12/13 02:11:17;;;;;;;6.25;3.10;;;11.10;73.40;;;;;;2461294;55;21548;-75
2020/12/13 02:13:43;;;;;;;7.37;3.60;;;11.00;73.20;;;;;;2226083;56;20976;-75
2020/12/13 02:16:10;;;;;;;6.70;3.03;;;11.00;73.20;;;;;;2461769;55;21040;-75
2020/12/13 02:18:38;;;;;;;7.03;3.00;;;11.10;73.30;;;;;;2238602;56;21035;-76
2020/12/13 02:21:07;;;;;;;6.20;2.90;;;11.10;73.30;;;;;;2231267;56;21114;-76
2020/12/13 02:23:33;;;;;;;6.43;2.60;;;11.00;73.20;;;;;;2231870;55;21075;-76
2020/12/13 02:26:00;;;;;;;6.00;2.40;;;11.00;73.90;;;;;;2445777;55;20960;-75
2020/12/13 02:28:27;;;;;;;5.70;2.35;;;11.10;73.30;;;;;;2462793;55;21033;-75
2020/12/13 02:30:53;;;;;;;9.02;3.97;;;11.00;73.20;;;;;;2448574;55;25237;-75
2020/12/13 02:33:20;;;;;;;6.28;2.92;;;11.00;73.20;;;;;;2230106;55;21772;-76
2020/12/13 02:35:47;;;;;;;4.30;2.40;;;11.00;73.20;;;;;;2448827;56;20979;-76
2020/12/13 02:38:13;;;;;;;4.55;2.00;;;11.00;73.20;;;;;;2236741;56;20991;-76
2020/12/13 02:40:43;;;;;;;5.43;2.58;;;11.00;73.30;;;;;;2445769;55;21945;-76
2020/12/13 02:43:09;;;;;;;4.82;2.30;;;11.00;73.30;;;;;;2450564;56;21039;-76
2020/12/13 02:45:36;;;;;;;3.67;2.08;;;11.00;73.30;;;;;;2445532;55;20945;-76
2020/12/13 02:48:03;;;;;;;3.33;1.85;;;11.00;73.30;;;;;;2235412;56;21024;-76
2020/12/13 02:50:31;;;;;;;3.97;2.00;;;11.00;73.30;;;;;;2445398;55;21020;-77
2020/12/13 02:52:59;;;;;;;3.00;1.65;;;11.00;73.40;;;;;;2229794;56;20947;-76
2020/12/13 02:55:26;;;;;;;3.60;1.92;;;11.00;73.30;;;;;;2461647;55;21012;-76
2020/12/13 02:57:52;;;;;;;2.75;1.45;;;11.00;73.30;;;;;;2235726;55;20947;-76
2020/12/13 03:00:19;;;;;;;2.80;1.40;;;11.00;73.30;;;;;;2446228;55;20969;-76
2020/12/13 03:02:48;;;;;;;3.60;1.48;;;11.00;73.30;;;;;;2225994;55;21025;-75
2020/12/13 03:05:14;;;;;;;2.45;1.30;;;11.00;73.30;;;;;;2458207;55;21042;-76
2020/12/13 03:07:43;;;;;;;2.33;1.17;;;11.00;73.20;;;;;;2228699;56;21833;-76
2020/12/13 03:10:10;;;;;;;3.10;1.45;;;11.00;73.20;;;;;;2462745;55;21826;-76
2020/12/13 03:12:36;;;;;;;3.20;1.40;;;11.00;73.30;;;;;;2236336;56;20967;-77
2020/12/13 03:15:02;;;;;;;2.37;1.10;;;11.00;73.20;;;;;;2231358;56;21012;-75
2020/12/13 03:17:29;;;;;;;4.20;1.12;;;11.00;73.30;;;;;;2445150;55;20979;-76
2020/12/13 03:19:55;;;;;;;2.22;1.08;;;11.00;73.20;;;;;;2238936;55;21500;-77
2020/12/13 03:22:24;;;;;;;2.28;1.02;;;11.00;73.30;;;;;;2227811;56;21022;-76
2020/12/13 03:24:50;;;;;;;2.20;1.10;;;11.00;73.30;;;;;;2229574;55;21098;-75
2020/12/13 03:27:17;;;;;;;3.58;1.27;;;11.00;73.20;;;;;;2229597;55;21100;-77
2020/12/13 03:29:45;;;;;;;2.05;1.00;;;11.00;73.10;;;;;;2239392;56;20973;-76
2020/12/13 03:32:12;;;;;;;2.05;0.90;;;11.00;73.10;;;;;;2239043;55;22038;-75
2020/12/13 03:34:39;;;;;;;2.37;1.08;;;11.00;73.10;;;;;;2239056;55;21586;-75
2020/12/13 03:37:05;;;;;;;2.12;0.95;;;11.00;73.20;;;;;;2448662;55;21485;-77
2020/12/13 03:39:32;;;;;;;2.30;1.00;;;11.00;73.20;;;;;;2444035;55;20974;-77
2020/12/13 03:41:59;;;;;;;2.45;1.10;;;11.00;73.30;;;;;;2456828;55;20941;-77
2020/12/13 03:44:26;;;;;;;1.67;0.77;;;11.00;73.20;;;;;;2462509;55;20944;-77
2020/12/13 03:46:52;;;;;;;2.47;1.00;;;11.00;73.30;;;;;;2462528;55;21019;-76
2020/12/13 03:49:19;;;;;;;2.37;1.10;;;11.00;73.30;;;;;;2462771;55;20972;-77
2020/12/13 03:51:45;;;;;;;2.53;0.98;;;11.00;73.30;;;;;;2462895;55;20945;-77
2020/12/13 03:54:11;;;;;;;2.05;0.98;;;11.00;73.30;;;;;;2444970;55;20960;-77
2020/12/13 03:56:38;;;;;;;3.10;1.02;;;11.00;73.20;;;;;;2237796;55;21007;-77
2020/12/13 03:59:05;;;;;;;2.30;1.00;;;11.00;73.20;;;;;;2229398;55;21550;-76
2020/12/13 04:01:32;;;;;;;2.22;1.23;;;11.00;73.30;;;;;;2230927;55;21513;-78
2020/12/13 04:04:00;;;;;;;4.28;1.40;;;11.00;73.40;;;;;;2238467;56;21012;-76
2020/12/13 04:06:26;;;;;;;2.62;1.40;;;11.00;73.30;;;;;;2450182;55;20986;-76
2020/12/13 04:08:53;;;;;;;4.57;1.50;;;11.10;73.40;;;;;;2229790;55;21910;-77
2020/12/13 04:11:22;;;;;;;3.20;1.48;;;11.00;73.30;;;;;;2242914;56;21786;-77
2020/12/13 04:13:49;;;;;;;2.78;1.48;;;11.10;73.30;;;;;;2224772;56;20947;-76
2020/12/13 04:16:15;;;;;;;2.33;1.25;;;11.10;73.30;;;;;;2463004;55;21016;-76
2020/12/13 04:18:41;;;;;;;2.03;1.00;;;11.10;73.20;;;;;;2239541;56;21438;-76
2020/12/13 04:21:08;;;;;;;2.35;1.08;;;11.10;73.10;;;;;;2229788;56;21507;-76
2020/12/13 04:23:35;;;;;;;1.98;0.90;;;11.10;73.10;;;;;;2226720;55;21044;-77
2020/12/13 04:26:04;;;;;;;2.08;0.90;;;11.10;73.10;;;;;;2452090;55;20963;-77
2020/12/13 04:28:31;;;;;;;2.00;0.90;;;11.10;73.00;;;;;;2229606;55;21062;-75
2020/12/13 04:30:58;;;;;;;2.03;0.93;;;11.10;72.90;;;;;;2228736;56;21030;-75
2020/12/13 04:33:24;;;;;;;1.95;0.90;;;11.00;72.70;;;;;;2225369;55;21014;-76
2020/12/13 04:35:51;;;;;;;2.45;0.82;;;11.00;72.60;;;;;;2463113;55;21028;-77
2020/12/13 04:38:19;;;;;;;2.40;1.10;;;11.00;72.40;;;;;;2463137;55;21016;-76
2020/12/13 04:40:47;;;;;;;2.30;0.90;;;11.00;72.40;;;;;;2206846;57;21027;-77
2020/12/13 04:43:13;;;;;;;2.17;0.90;;;11.00;72.40;;;;;;2462809;55;21429;-76
2020/12/13 04:45:40;;;;;;;2.20;0.98;;;10.90;72.40;;;;;;2462762;55;20992;-76
2020/12/13 04:48:08;;;;;;;2.28;0.90;;;11.00;72.50;;;;;;2445047;56;21679;-75
2020/12/13 04:50:37;;;;;;;2.17;0.90;;;10.90;72.50;;;;;;2462797;55;21458;-76
2020/12/13 04:53:08;;;;;;;1.62;0.62;;;10.90;72.60;;;;;;2241102;56;20966;-76
2020/12/13 04:55:55;;;;;;;1.35;0.62;;;10.90;72.60;;;;;;2445034;56;21678;-76
2020/12/13 04:58:22;;;;;;;2.22;0.95;;;10.90;72.60;;;;;;2420989;56;20976;-76
2020/12/13 05:00:57;;;;;;;1.98;0.90;;;10.90;72.70;;;;;;2206715;57;21481;-76
2020/12/13 05:03:24;;;;;;;1.58;0.70;;;10.90;72.80;;;;;;2241536;56;20993;-75
2020/12/13 05:05:51;;;;;;;2.00;0.90;;;10.90;72.90;;;;;;2229036;56;21499;-76
2020/12/13 05:08:18;;;;;;;2.58;0.80;;;10.80;72.80;;;;;;2462686;55;21527;-76
2020/12/13 05:10:45;;;;;;;2.08;0.75;;;10.80;72.90;;;;;;2462611;55;20993;-76
2020/12/13 05:13:11;;;;;;;1.90;0.82;;;10.80;72.90;;;;;;2463424;55;20980;-75
2020/12/13 05:15:38;;;;;;;2.20;0.80;;;10.80;72.90;;;;;;2462499;55;21916;-75
2020/12/13 05:18:05;;;;;;;2.50;0.95;;;10.90;73.10;;;;;;2238927;55;21049;-76
2020/12/13 05:20:31;;;;;;;2.40;1.10;;;10.80;72.90;;;;;;2239166;55;21036;-75
2020/12/13 05:22:58;;;;;;;2.72;1.20;;;10.90;72.90;;;;;;2461791;55;21013;-75
2020/12/13 05:25:34;;;;;;;3.12;1.20;;;10.80;72.80;;;;;;2232008;56;21502;-75
2020/12/13 05:28:08;;;;;;;2.20;0.90;;;10.80;72.70;;;;;;2455255;55;21011;-76
2020/12/13 05:30:41;;;;;;;2.30;1.05;;;10.90;72.90;;;;;;2229587;55;20945;-75
2020/12/13 05:33:12;;;;;;;2.97;1.20;;;10.80;72.80;;;;;;2238833;56;21495;-76
2020/12/13 05:35:38;;;;;;;2.28;1.12;;;10.80;72.80;;;;;;2230668;56;21047;-76
2020/12/13 05:38:10;;;;;;;2.30;0.90;;;10.80;72.80;;;;;;2445450;55;21764;-75
2020/12/13 05:40:37;;;;;;;2.15;0.85;;;10.80;72.80;;;;;;2225146;55;20964;-75
2020/12/13 05:43:09;;;;;;;2.10;0.90;;;10.80;72.80;;;;;;2462778;56;21009;-75
2020/12/13 05:50:59;;;;;;;1.60;0.80;;;10.80;72.80;;;;;;2230675;55;21086;-75
2020/12/13 05:53:27;;;;;;;1.60;0.70;;;10.80;72.60;;;;;;2419877;56;20969;-76
2020/12/13 05:55:56;;;;;;;1.75;0.80;;;10.80;72.70;;;;;;2240470;56;21079;-75
2020/12/13 05:58:26;;;;;;;1.77;0.80;;;10.80;72.80;;;;;;2227139;55;21025;-75
2020/12/13 06:00:54;;;;;;;1.87;0.80;;;10.80;72.80;;;;;;2463071;55;21124;-75
2020/12/13 06:03:29;;;;;;;2.25;0.95;;;10.70;72.90;;;;;;2462474;55;21008;-75
2020/12/13 06:06:08;;;;;;;1.95;0.80;;;10.80;73.00;;;;;;2463115;55;20933;-76
2020/12/13 06:10:17;;;;;;;1.90;0.82;;;10.70;73.00;;;;;;2242805;56;21848;-76
2020/12/13 06:12:43;;;;;;;2.20;0.90;;;10.80;73.00;;;;;;2455690;55;21828;-76
2020/12/13 06:15:10;;;;;;;1.85;1.00;;;10.90;73.20;;;;;;2225280;55;20994;-75
2020/12/13 06:17:37;;;;;;;2.28;0.90;;;10.80;73.10;;;;;;2236267;55;21755;-76
2020/12/13 06:20:06;;;;;;;2.22;0.93;;;10.80;73.20;;;;;;2225101;55;21815;-76
2020/12/13 06:22:32;;;;;;;2.17;1.10;;;10.80;73.20;;;;;;2239153;56;20984;-75
2020/12/13 06:24:59;;;;;;;2.60;1.15;;;10.80;73.10;;;;;;2229419;55;21827;-76
2020/12/13 06:27:26;;;;;;;3.33;1.27;;;10.80;73.10;;;;;;2462089;55;21867;-75
2020/12/13 06:29:53;;;;;;;3.42;1.10;;;10.80;73.10;;;;;;2451662;56;20983;-76
2020/12/13 06:32:21;;;;;;;2.67;1.10;;;10.80;73.10;;;;;;2456124;55;20956;-76
2020/12/13 06:34:48;;;;;;;2.95;1.15;;;10.80;73.20;;;;;;2451830;56;21043;-76
2020/12/13 06:37:15;;;;;;;2.08;1.00;;;10.80;73.20;;;;;;2236011;56;21890;-75
2020/12/13 06:39:42;;;;;;;2.80;1.20;;;10.80;73.20;;;;;;2229734;55;21001;-76
2020/12/13 06:42:08;;;;;;;2.28;1.10;;;10.80;73.30;;;;;;2442016;55;20992;-76
2020/12/13 06:44:35;;;;;;;4.43;1.05;;;10.80;73.30;;;;;;2226042;55;21002;-76
2020/12/13 06:47:01;;;;;;;2.03;0.90;;;10.80;73.30;;;;;;2229526;55;21045;-75
2020/12/13 06:49:28;;;;;;;2.20;0.88;;;10.80;73.30;;;;;;2441751;56;21014;-75
2020/12/13 06:51:58;;;;;;;2.47;1.08;;;10.80;73.30;;;;;;2446270;55;21143;-76
2020/12/13 06:54:25;;;;;;;2.25;0.98;;;10.80;73.30;;;;;;2225611;55;21690;-76
2020/12/13 06:56:52;;;;;;;2.55;1.20;;;10.80;73.40;;;;;;2228981;56;20987;-75
2020/12/13 06:59:19;;;;;;;3.25;1.17;;;10.80;73.40;;;;;;2233164;56;21000;-75
2020/12/13 07:01:46;;;;;;;2.97;1.23;;;10.80;73.40;;;;;;2462259;55;21040;-75
2020/12/13 07:04:36;;;;;;;2.72;1.27;;;10.80;73.40;;;;;;2461721;55;20996;-75
2020/12/13 07:07:19;;;;;;;3.17;1.50;;;10.90;73.30;;;;;;2459754;55;21046;-76
2020/12/13 07:09:47;;;;;;;2.87;1.45;;;10.90;73.40;;;;;;2230048;55;20994;-75
2020/12/13 07:12:14;;;;;;;3.65;1.45;;;10.90;73.40;;;;;;2454303;56;21839;-75
2020/12/13 07:14:41;;;;;;;3.47;1.90;;;10.90;73.40;;;;;;2462223;55;21064;-76
2020/12/13 07:17:14;;;;;;;3.95;1.85;;;10.90;73.40;;;;;;2450620;55;20975;-76
2020/12/13 07:19:41;;;;;;;3.87;1.67;;;10.90;73.20;;;;;;2235809;56;21060;-75
2020/12/13 07:22:12;;;;;;;3.42;1.48;;;10.90;73.20;;;;;;2444831;55;20967;-76
2020/12/13 07:24:40;;;;;;;2.53;1.12;;;10.90;73.20;;;;;;2415397;56;21843;-76
2020/12/13 07:27:06;;;;;;;2.30;1.15;;;10.90;73.10;;;;;;2457584;55;21005;-76
2020/12/13 07:29:34;;;;;;;2.92;1.20;;;10.90;73.10;;;;;;2228644;55;21110;-75
2020/12/13 07:32:01;;;;;;;2.05;0.70;;;10.90;73.10;;;;;;2232521;55;21016;-75
2020/12/13 07:34:30;;;;;;;1.73;0.77;;;10.90;73.10;;;;;;2460601;55;21004;-76
2020/12/13 07:36:58;;;;;;;2.62;1.15;;;10.90;73.00;;;;;;2238179;56;21771;-75
2020/12/13 07:39:28;;;;;;;2.90;1.10;;;10.90;73.00;;;;;;2239204;56;20992;-75
2020/12/13 07:41:55;;;;;;;1.90;0.80;;;10.90;73.00;;;;;;2462428;55;21028;-76
2020/12/13 07:44:23;;;;;;;3.10;1.10;;;10.90;73.00;;;;;;2230021;56;21419;-76
2020/12/13 07:46:49;;;;;;;2.03;0.82;;;10.90;73.10;;;;;;2460722;55;21505;-75
2020/12/13 07:49:20;;;;;;;2.85;1.50;;;10.90;73.00;;;;;;2228517;56;20972;-75
2020/12/13 07:51:47;;;;;;;6.32;3.55;;;10.90;73.00;;;;;;2459570;55;21011;-76
2020/12/13 07:54:32;;;;;;;7.12;3.87;;;10.90;73.10;;;;;;2206987;57;21543;-75
2020/12/13 07:56:59;;;;;;;6.60;3.45;;;10.90;73.00;;;;;;2462877;55;20992;-75
2020/12/13 07:59:27;;;;;;;5.50;2.50;;;10.90;73.80;;;;;;2461631;55;20949;-76
2020/12/13 08:01:57;;;;;;;3.90;1.90;;;10.90;73.10;;;;;;2228579;56;20998;-76
2020/12/13 08:06:16;;;;;;;3.33;1.85;;;10.80;73.10;;;;;;2462987;55;21371;-76
2020/12/13 08:08:43;;;;;;;2.78;1.25;;;10.90;72.70;;;;;;2229546;56;20991;-75
2020/12/13 08:11:11;;;;;;;3.10;1.50;;;10.90;73.20;;;;;;2442144;55;20926;-76
2020/12/13 08:13:47;;;;;;;3.33;1.62;;;10.80;73.10;;;;;;2240842;55;21000;-76
2020/12/13 08:16:14;;;;;;;2.83;1.50;;;10.80;73.10;;;;;;2227116;56;21374;-75
2020/12/13 08:18:49;;;;;;;4.25;2.10;;;10.80;73.10;;;;;;2242256;55;21097;-75
2020/12/13 08:21:24;;;;;;;3.72;1.73;;;10.90;73.30;;;;;;2238520;56;20952;-75
2020/12/13 08:23:52;;;;;;;3.47;1.80;;;10.80;73.10;;;;;;2455817;55;21044;-75
2020/12/13 08:26:19;;;;;;;3.67;1.80;;;10.80;73.20;;;;;;2239329;56;21064;-75
2020/12/13 08:28:46;;;;;;;2.85;1.52;;;10.90;73.30;;;;;;2465448;55;21669;-75
2020/12/13 08:31:14;;;;;;;4.30;2.12;;;10.80;73.20;;;;;;2232822;56;21874;-75
2020/12/13 08:33:42;;;;;;;4.93;2.42;;;10.80;73.10;;;;;;2221973;56;21461;-76
2020/12/13 08:36:18;;;;;;;4.37;2.12;;;10.90;73.20;;;;;;2220710;56;21820;-75
2020/12/13 08:39:09;;;;;;;4.22;2.50;;;10.90;73.00;;;;;;2228656;55;21774;-76
2020/12/13 08:41:42;;;;;;;4.00;2.50;;;10.80;73.10;;;;;;2458781;55;21052;-76
2020/12/13 08:44:26;;;;;;;4.10;1.90;;;10.90;73.30;;;;;;2455841;55;21859;-75
2020/12/13 08:46:52;;;;;;;3.58;1.77;;;10.90;73.20;;;;;;2226318;55;25577;-75
2020/12/13 08:49:28;;;;;;;13.93;7.97;;;10.90;73.30;;;;;;2443175;55;20951;-76
2020/12/13 08:51:55;;;;;;;8.70;5.65;;;10.90;73.30;;;;;;2457220;55;20992;-76
2020/12/13 08:54:22;;;;;;;5.55;3.42;;;10.90;73.40;;;;;;2462474;55;21357;-77
2020/12/13 08:57:00;;;;;;;6.20;3.58;;;10.90;73.50;;;;;;2418318;56;20976;-76
2020/12/13 08:59:27;;;;;;;5.70;3.20;;;10.90;73.60;;;;;;2450370;55;21539;-75
2020/12/13 09:01:57;;;;;;;4.95;2.35;;;10.90;73.50;;;;;;2444307;55;21765;-76
2020/12/13 09:04:25;;;;;;;5.95;2.15;;;10.90;73.50;;;;;;2228146;55;21018;-75
2020/12/13 09:06:58;;;;;;;4.50;2.20;;;11.00;73.60;;;;;;2462816;55;21000;-76
2020/12/13 09:09:34;;;;;;;5.65;3.00;;;11.00;73.60;;;;;;2451438;56;20967;-75
2020/12/13 09:12:00;;;;;;;6.82;3.10;;;11.00;73.50;;;;;;2420449;55;21044;-76
2020/12/13 09:14:31;;;;;;;4.15;2.12;;;11.00;73.60;;;;;;2239728;56;20960;-75
2020/12/13 09:16:58;;;;;;;4.30;1.98;;;11.00;73.60;;;;;;2446792;55;21039;-75
2020/12/13 09:19:25;;;;;;;3.42;2.08;;;11.10;73.90;;;;;;2461605;55;21007;-75
2020/12/13 09:21:53;;;;;;;4.22;2.33;;;11.10;74.00;;;;;;2239663;56;20973;-75
2020/12/13 09:24:21;;;;;;;4.03;2.10;;;11.10;74.10;;;;;;2457239;55;21083;-75
2020/12/13 09:27:07;;;;;;;3.72;2.03;;;11.20;74.20;;;;;;2447230;55;20992;-75
2020/12/13 09:29:37;;;;;;;3.03;1.77;;;11.20;73.90;;;;;;2207584;57;20999;-76
2020/12/13 09:32:07;;;;;;;;;;;11.20;74.20;;;;;;2453107;56;20964;-76
2020/12/13 09:34:36;;;;;;;3.78;1.98;;;11.30;73.50;;;;;;2461904;55;20114;-75
2020/12/13 09:37:03;;;;;;;3.87;1.87;;;11.30;74.10;;;;;;2242999;56;21087;-76
2020/12/13 09:39:33;;;;;;;4.05;1.70;;;11.40;74.10;;;;;;2238396;56;21022;-75
2020/12/13 09:41:59;;;;;;;3.85;1.73;;;11.50;73.90;;;;;;2450637;56;21587;-75
2020/12/13 09:44:27;;;;;;;2.30;1.15;;;11.40;73.60;;;;;;2442534;55;20951;-76
2020/12/13 09:46:57;;;;;;;3.05;1.33;;;11.40;73.50;;;;;;2234524;55;21004;-75
2020/12/13 09:49:25;;;;;;;3.50;1.12;;;11.50;73.30;;;;;;2445587;56;20967;-76
2020/12/13 09:52:27;;;;;;;3.85;1.35;;;11.40;73.40;;;;;;2462398;55;21032;-76
2020/12/13 09:54:55;;;;;;;4.03;1.20;;;11.40;72.90;;;;;;2230203;56;21451;-76
2020/12/13 09:57:21;;;;;;;4.10;1.62;;;11.40;73.50;;;;;;2450413;56;20947;-75
2020/12/13 09:59:48;;;;;;;3.45;1.30;;;11.40;73.50;;;;;;2232123;56;21556;-75
2020/12/13 10:02:15;;;;;;;2.80;1.42;;;11.40;73.50;;;;;;2451157;55;21012;-75
2020/12/13 10:04:44;;;;;;;2.90;1.40;;;11.50;73.60;;;;;;2449527;55;21063;-75
2020/12/13 10:11:01;;;;;;;3.72;1.30;;;11.50;73.30;;;;;;2229989;56;21027;-75
2020/12/13 10:13:28;;;;;;;3.03;1.20;;;11.50;73.10;;;;;;2460921;55;20981;-75
2020/12/13 10:15:57;;;;;;;3.72;1.27;;;11.50;73.10;;;;;;2236833;56;20995;-75
2020/12/13 10:18:23;;;;;;;4.82;1.20;;;11.50;73.00;;;;;;2446577;56;21114;-75
2020/12/13 10:20:53;;;;;;;2.72;0.90;;;11.50;72.90;;;;;;2227932;56;21630;-76
2020/12/13 10:23:19;;;;;;;5.32;1.40;;;11.50;72.90;;;;;;2450918;56;21833;-76
2020/12/13 10:25:47;;;;;;;4.32;1.48;;;11.50;73.00;;;;;;2238179;56;21100;-76
2020/12/13 10:28:13;;;;;;;5.25;1.35;;;11.50;72.90;;;;;;2454599;55;21090;-76
2020/12/13 10:30:40;;;;;;;3.45;1.25;;;11.50;72.90;;;;;;2232659;56;20999;-76
2020/12/13 10:33:08;;;;;;;5.28;1.60;;;11.40;72.90;;;;;;2449221;56;20989;-75
2020/12/13 10:35:39;;;;;;;2.50;1.15;;;11.50;73.20;;;;;;2239926;56;20972;-75
2020/12/13 10:38:06;;;;;;;3.75;1.60;;;11.50;73.40;;;;;;2228653;56;20939;-75
2020/12/13 10:40:34;;;;;;;3.80;1.52;;;11.50;73.60;;;;;;2238368;56;20941;-76
2020/12/13 10:43:03;;;;;;;19.05;9.02;;;11.60;73.70;;;;;;2447457;56;21950;-75
2020/12/13 10:45:29;;;;;;;8.45;4.18;;;11.60;73.70;;;;;;2232668;56;21011;-75
2020/12/13 10:47:56;;;;;;;5.47;2.20;;;11.60;73.50;;;;;;2224630;55;20974;-75
2020/12/13 10:50:26;;;;;;;3.87;1.60;;;11.60;73.50;;;;;;2226234;55;21043;-75
2020/12/13 10:52:55;;;;;;;3.10;1.35;;;11.70;73.40;;;;;;2227991;56;21006;-75
2020/12/13 10:55:22;;;;;;;5.45;1.55;;;11.70;73.50;;;;;;2462699;55;20993;-75
2020/12/13 10:57:49;;;;;;;5.90;1.58;;;11.70;73.30;;;;;;2463621;55;21389;-76
2020/12/13 11:00:16;;;;;;;3.95;1.42;;;11.70;73.00;;;;;;2437921;55;21069;-75
2020/12/13 11:02:43;;;;;;;4.03;1.60;;;11.70;72.90;;;;;;2449097;55;21694;-75
2020/12/13 11:05:09;;;;;;;4.32;1.40;;;11.60;73.00;;;;;;2455856;55;21132;-74
2020/12/13 11:07:36;;;;;;;3.40;1.40;;;11.80;73.40;;;;;;2239281;56;20953;-75
2020/12/13 11:10:03;;;;;;;3.92;1.45;;;11.80;73.30;;;;;;2239903;56;21051;-75
2020/12/13 11:12:29;;;;;;;3.87;1.27;;;11.90;73.00;;;;;;2450041;56;20989;-75
2020/12/13 11:14:56;;;;;;;4.20;1.60;;;11.80;72.80;;;;;;2208913;57;21027;-75
2020/12/13 11:17:22;;;;;;;5.18;1.62;;;11.80;72.70;;;;;;2225121;55;20998;-76
2020/12/13 11:19:49;;;;;;;3.95;1.20;;;11.90;72.80;;;;;;2229787;55;20955;-75
2020/12/13 11:22:16;;;;;;;3.03;1.48;;;11.80;72.50;;;;;;2443896;55;20959;-74
2020/12/13 11:24:43;;;;;;;6.05;1.62;;;11.80;72.30;;;;;;2464694;55;21025;-75
2020/12/13 11:27:09;;;;;;;6.43;1.40;;;11.80;72.00;;;;;;2239428;60;22397;-75
2020/12/13 11:29:36;;;;;;;3.85;1.50;;;11.80;71.70;;;;;;2230286;56;21036;-75
2020/12/13 11:32:05;;;;;;;5.65;1.45;;;11.70;71.70;;;;;;2462571;56;21040;-75
2020/12/13 11:34:31;;;;;;;6.85;1.70;;;11.70;71.70;;;;;;2462407;55;21539;-75
2020/12/13 11:37:01;;;;;;;2.87;1.50;;;11.70;71.90;;;;;;2463052;55;21051;-75
2020/12/13 11:39:30;;;;;;;6.68;1.35;;;11.70;72.10;;;;;;2206041;57;21068;-75
2020/12/13 11:42:01;;;;;;;4.07;1.50;;;11.70;72.20;;;;;;2419915;56;21442;-74
2020/12/13 11:44:28;;;;;;;4.80;1.70;;;11.70;72.20;;;;;;2207374;56;21456;-74
2020/12/13 11:46:54;;;;;;;5.97;1.60;;;11.70;72.60;;;;;;2239377;56;21007;-74
2020/12/13 11:49:22;;;;;;;3.22;1.10;;;11.70;72.70;;;;;;2462744;55;25163;-74
2020/12/13 11:51:49;;;;;;;4.25;1.35;;;11.70;72.70;;;;;;2462915;55;20957;-74
2020/12/13 11:54:15;;;;;;;5.97;1.92;;;11.70;72.60;;;;;;2462961;56;21311;-74
2020/12/13 11:56:44;;;;;;;3.62;1.58;;;11.70;72.50;;;;;;2462614;55;20968;-74
2020/12/13 11:59:11;;;;;;;3.00;1.30;;;11.70;72.60;;;;;;2233437;56;20987;-74
2020/12/13 12:01:42;;;;;;;3.92;1.50;;;11.70;72.80;;;;;;2455215;55;21772;-74
2020/12/13 12:04:09;;;;;;;3.00;1.20;;;11.80;72.90;;;;;;2445468;56;21028;-74
2020/12/13 12:06:36;;;;;;;5.32;1.20;;;11.80;73.20;;;;;;2462836;55;20966;-75
2020/12/13 12:09:03;;;;;;;3.75;1.30;;;11.80;73.50;;;;;;2231816;56;21067;-74
2020/12/13 12:11:30;;;;;;;6.12;2.00;;;11.90;73.80;;;;;;2455513;55;21011;-74
2020/12/13 12:13:57;;;;;;;3.15;1.40;;;12.00;74.00;;;;;;2227767;56;20972;-75
2020/12/13 12:16:27;;;;;;;4.90;1.85;;;12.00;74.10;;;;;;2462940;56;20993;-74
2020/12/13 12:18:55;;;;;;;4.72;1.60;;;12.10;74.00;;;;;;2446763;55;20928;-74
2020/12/13 12:21:25;;;;;;;5.78;1.67;;;12.20;74.00;;;;;;2460619;55;20965;-74
2020/12/13 12:23:52;;;;;;;5.65;1.87;;;12.20;73.60;;;;;;2238486;56;20968;-74
2020/12/13 12:26:19;;;;;;;5.70;1.80;;;12.30;73.90;;;;;;2238548;56;21833;-74
2020/12/13 12:28:58;;;;;;;5.28;1.50;;;12.40;73.80;;;;;;2233673;56;20986;-74
2020/12/13 12:31:25;;;;;;;5.72;1.77;;;12.40;73.10;;;;;;2224408;55;20991;-74
2020/12/13 12:33:53;;;;;;;5.55;1.62;;;12.50;73.70;;;;;;2231393;55;21042;-74
2020/12/13 12:36:21;;;;;;;3.35;1.70;;;12.60;73.50;;;;;;2233649;56;21028;-74
2020/12/13 12:38:48;;;;;;;4.55;1.80;;;12.60;72.70;;;;;;2237554;56;21003;-75
2020/12/13 12:41:15;;;;;;;4.62;1.52;;;12.60;72.10;;;;;;2450986;55;21020;-74
2020/12/13 12:43:42;;;;;;;3.00;1.25;;;12.60;71.60;;;;;;2238150;56;21500;-74
2020/12/13 12:46:08;;;;;;;2.90;1.17;;;12.60;71.40;;;;;;2445772;56;21026;-74
2020/12/13 12:48:36;;;;;;;4.87;1.10;;;12.50;71.30;;;;;;2239202;56;21039;-74
2020/12/13 12:51:03;;;;;;;3.72;1.10;;;12.50;71.20;;;;;;2418186;56;21096;-74
2020/12/13 12:53:29;;;;;;;6.50;2.45;;;12.50;71.40;;;;;;2226884;55;21019;-74
2020/12/13 12:55:59;;;;;;;5.72;2.60;;;12.50;71.50;;;;;;2455127;55;21054;-74
2020/12/13 12:58:28;;;;;;;5.05;1.83;;;12.40;71.40;;;;;;2450285;56;20988;-74
2020/12/13 13:01:02;;;;;;;4.07;1.50;;;12.40;71.20;;;;;;2226303;56;20984;-74
2020/12/13 13:03:30;;;;;;;4.60;1.65;;;12.40;71.30;;;;;;2445791;55;21024;-74
2020/12/13 13:11:09;;;;;;;5.28;1.70;;;12.40;71.70;;;;;;2234786;56;20973;-73
2020/12/13 13:13:35;;;;;;;5.00;1.65;;;12.40;70.80;;;;;;2207043;56;21036;-73
2020/12/13 13:16:04;;;;;;;5.70;1.35;;;12.30;70.50;;;;;;2238449;56;21028;-73